Terminal Aerodrome Forecast
Issued by NWS

Home | Current Version | Previous Version | Text Only | Print | Product List | Glossary On
Versions: 1 2 3 4 5 6 7 8 9 10 11 12 13 14 15 16 17 18 19 20 21 22 23 24 25 26
353
FTUS45 KMSO 190520
TAFSMN
TAF
KSMN 190520Z 1906/2006 03012KT 6SM -SN BKN030 OVC060
     FM190700 VRB05KT P6SM VCSH SCT030 OVC050
     FM191700 VRB03KT P6SM BKN050=

USA.gov is the U.S. government's official web portal to all federal, state and local government web resources and services.